createdAt,value
2022-11-02T00:02:00.040Z,5.72
2022-11-02T00:04:26.764Z,5.35
2022-11-02T00:06:53.299Z,4.88
2022-11-02T00:09:19.839Z,5.28
2022-11-02T00:11:46.441Z,4.90
2022-11-02T00:14:12.993Z,5.10
2022-11-02T00:16:40.339Z,5.43
2022-11-02T00:19:08.241Z,7.07
2022-11-02T00:21:35.377Z,6.78
2022-11-02T00:24:04.427Z,4.85
2022-11-02T00:26:33.824Z,5.00
2022-11-02T00:29:01.310Z,4.47
2022-11-02T00:31:27.992Z,4.70
2022-11-02T00:33:54.614Z,5.97
2022-11-02T00:36:21.261Z,4.78
2022-11-02T00:38:47.914Z,4.68
2022-11-02T00:41:15.137Z,4.80
2022-11-02T00:43:41.678Z,4.90
2022-11-02T00:46:08.266Z,5.10
2022-11-02T00:48:34.901Z,4.80
2022-11-02T00:51:01.700Z,5.05
2022-11-02T00:53:29.941Z,5.05
2022-11-02T00:55:56.550Z,4.90
2022-11-02T00:58:23.134Z,4.30
2022-11-02T01:00:51.005Z,4.20
2022-11-02T01:03:17.768Z,4.10
2022-11-02T01:05:44.304Z,4.70
2022-11-02T01:08:11.356Z,4.30
2022-11-02T01:10:39.048Z,4.82
2022-11-02T01:13:07.029Z,4.50
2022-11-02T01:15:33.636Z,3.67
2022-11-02T01:18:00.341Z,3.90
2022-11-02T01:20:27.988Z,3.75
2022-11-02T01:22:54.591Z,3.65
2022-11-02T01:25:21.163Z,3.88
2022-11-02T01:27:47.730Z,3.67
2022-11-02T01:30:14.418Z,4.43
2022-11-02T01:32:43.672Z,4.30
2022-11-02T01:35:10.398Z,3.83
2022-11-02T01:37:38.345Z,3.80
2022-11-02T01:40:05.512Z,3.85
2022-11-02T01:42:35.252Z,3.38
2022-11-02T01:45:01.892Z,3.50
2022-11-02T01:47:35.839Z,4.28
2022-11-02T01:50:06.920Z,3.38
2022-11-02T01:52:36.820Z,3.95
2022-11-02T01:55:07.048Z,3.25
2022-11-02T01:57:35.739Z,4.13
2022-11-02T02:00:09.842Z,4.05
2022-11-02T02:02:54.616Z,4.50
2022-11-02T02:05:24.158Z,4.80
2022-11-02T02:07:52.249Z,4.50
2022-11-02T02:10:19.282Z,4.63
2022-11-02T02:12:46.407Z,4.20
2022-11-02T02:15:17.612Z,4.32
2022-11-02T02:17:48.266Z,3.83
2022-11-02T02:20:27.453Z,3.88
2022-11-02T02:23:12.699Z,3.53
2022-11-02T02:25:51.634Z,3.63
2022-11-02T02:28:43.528Z,3.63
2022-11-02T02:31:20.097Z,3.75
2022-11-02T02:33:47.049Z,3.50
2022-11-02T02:36:49.730Z,3.33
2022-11-02T02:39:40.735Z,3.42
2022-11-02T02:45:06.893Z,3.15
2022-11-02T02:47:37.105Z,3.45
2022-11-02T02:50:17.174Z,3.63
2022-11-02T02:52:47.719Z,3.45
2022-11-02T02:55:20.613Z,3.45
2022-11-02T02:57:49.028Z,3.30
2022-11-02T03:00:20.359Z,3.60
2022-11-02T03:03:01.094Z,3.72
2022-11-02T03:05:37.028Z,3.42
2022-11-02T03:08:16.304Z,3.38
2022-11-02T03:11:03.806Z,3.45
2022-11-02T03:13:39.687Z,3.50
2022-11-02T03:16:28.297Z,3.40
2022-11-02T03:19:32.581Z,3.20
2022-11-02T03:22:05.173Z,3.38
2022-11-02T03:24:43.278Z,3.60
2022-11-02T03:27:22.413Z,3.08
2022-11-02T03:29:54.068Z,3.65
2022-11-02T03:32:28.865Z,3.75
2022-11-02T03:35:03.626Z,3.65
2022-11-02T03:37:35.076Z,2.90
2022-11-02T03:40:16.054Z,2.60
2022-11-02T03:42:45.397Z,3.05
2022-11-02T03:45:23.300Z,2.85
2022-11-02T03:47:56.373Z,3.28
2022-11-02T03:50:24.535Z,3.03
2022-11-02T03:53:04.386Z,2.97
2022-11-02T03:55:36.606Z,3.20
2022-11-02T03:58:04.382Z,2.50
2022-11-02T04:00:36.111Z,3.13
2022-11-02T04:03:07.992Z,3.03
2022-11-02T04:05:39.954Z,2.40
2022-11-02T04:08:35.879Z,2.50
2022-11-02T04:11:24.722Z,2.70
2022-11-02T04:14:13.016Z,3.28
2022-11-02T04:16:42.080Z,2.95
2022-11-02T04:19:29.850Z,2.30
2022-11-02T04:22:21.142Z,2.78
2022-11-02T04:25:11.362Z,2.58
2022-11-02T04:27:39.055Z,2.88
2022-11-02T04:30:07.090Z,2.50
2022-11-02T04:33:02.845Z,2.75
2022-11-02T04:35:35.120Z,3.15
2022-11-02T04:38:21.128Z,2.58
2022-11-02T04:40:48.075Z,2.53
2022-11-02T04:43:14.676Z,3.17
2022-11-02T04:45:41.665Z,2.95
2022-11-02T04:48:09.981Z,2.50
2022-11-02T04:50:37.832Z,2.40
2022-11-02T04:53:07.159Z,2.55
2022-11-02T04:55:34.899Z,3.20
2022-11-02T04:58:02.919Z,2.55
2022-11-02T05:00:30.075Z,2.20
2022-11-02T05:02:57.976Z,2.72
2022-11-02T05:05:25.892Z,2.80
2022-11-02T05:07:55.811Z,3.55
2022-11-02T05:10:23.062Z,3.53
2022-11-02T05:12:59.827Z,3.10
2022-11-02T05:15:31.083Z,2.80
2022-11-02T05:17:59.399Z,2.50
2022-11-02T05:20:28.934Z,3.40
2022-11-02T05:22:56.312Z,3.00
2022-11-02T05:25:24.316Z,2.70
2022-11-02T05:27:52.195Z,2.20
2022-11-02T05:30:19.619Z,3.03
2022-11-02T05:32:46.756Z,3.70
2022-11-02T05:35:13.519Z,2.50
2022-11-02T05:37:40.148Z,2.42
2022-11-02T05:40:08.923Z,2.85
2022-11-02T05:42:36.848Z,2.72
2022-11-02T05:45:03.811Z,3.10
2022-11-02T05:47:30.400Z,2.80
2022-11-02T05:49:56.998Z,2.75
2022-11-02T05:52:23.533Z,2.80
2022-11-02T05:54:50.126Z,3.30
2022-11-02T05:57:19.065Z,2.95
2022-11-02T05:59:48.389Z,2.88
2022-11-02T06:02:16.156Z,3.07
2022-11-02T06:04:42.727Z,3.78
2022-11-02T06:07:09.349Z,4.50
2022-11-02T06:09:35.935Z,3.33
2022-11-02T06:12:03.542Z,3.42
2022-11-02T06:14:30.058Z,3.25
2022-11-02T06:16:57.127Z,2.97
2022-11-02T06:19:23.739Z,3.10
2022-11-02T06:21:50.277Z,2.80
2022-11-02T06:24:16.925Z,2.45
2022-11-02T06:26:43.537Z,3.30
2022-11-02T06:29:10.187Z,3.35
2022-11-02T06:31:36.727Z,3.67
2022-11-02T06:34:03.437Z,3.97
2022-11-02T06:36:30.011Z,3.03
2022-11-02T06:38:56.563Z,3.47
2022-11-02T06:41:23.173Z,3.25
2022-11-02T06:43:49.925Z,2.60
2022-11-02T06:46:16.603Z,3.38
2022-11-02T06:48:43.280Z,3.38
2022-11-02T06:51:09.862Z,3.03
2022-11-02T06:53:36.480Z,3.60
2022-11-02T06:56:03.324Z,3.35
2022-11-02T06:58:29.995Z,3.17
2022-11-02T07:00:59.506Z,2.63
2022-11-02T07:03:26.828Z,3.60
2022-11-02T07:05:54.273Z,3.00
2022-11-02T07:08:21.985Z,2.88
2022-11-02T07:10:49.184Z,2.20
2022-11-02T07:13:15.771Z,2.95
2022-11-02T07:15:42.435Z,2.25
2022-11-02T07:18:09.520Z,2.60
2022-11-02T07:20:36.463Z,2.90
2022-11-02T07:23:04.425Z,2.92
2022-11-02T07:25:33.025Z,2.10
2022-11-02T07:28:01.168Z,2.75
2022-11-02T07:30:34.125Z,3.28
2022-11-02T07:33:00.869Z,3.53
2022-11-02T07:35:27.774Z,3.25
2022-11-02T07:37:56.037Z,2.83
2022-11-02T07:40:22.658Z,3.13
2022-11-02T07:42:49.982Z,2.67
2022-11-02T07:45:21.643Z,2.97
2022-11-02T07:47:49.111Z,3.03
2022-11-02T07:50:18.648Z,2.20
2022-11-02T07:52:49.284Z,1.95
2022-11-02T07:55:18.698Z,1.80
2022-11-02T07:57:57.577Z,2.13
2022-11-02T08:00:26.011Z,2.10
2022-11-02T08:02:57.611Z,2.03
2022-11-02T08:05:25.905Z,2.13
2022-11-02T08:08:03.878Z,2.05
2022-11-02T08:10:35.398Z,1.50
2022-11-02T08:13:06.130Z,1.52
2022-11-02T08:15:32.707Z,1.58
2022-11-02T08:18:05.784Z,1.58
2022-11-02T08:20:34.792Z,1.70
2022-11-02T08:23:01.827Z,1.40
2022-11-02T08:25:28.504Z,1.23
2022-11-02T08:27:59.363Z,1.48
2022-11-02T08:30:27.304Z,1.15
2022-11-02T08:32:57.147Z,1.10
2022-11-02T08:35:24.234Z,1.30
2022-11-02T08:37:58.098Z,1.30
2022-11-02T08:40:24.718Z,1.30
2022-11-02T08:43:03.712Z,1.38
2022-11-02T08:45:53.810Z,1.20
2022-11-02T08:48:18.296Z,1.40
2022-11-02T08:50:44.822Z,1.48
2022-11-02T08:53:11.440Z,1.50
2022-11-02T08:55:38.062Z,1.77
2022-11-02T08:58:05.121Z,1.45
2022-11-02T09:00:34.027Z,1.30
2022-11-02T09:03:07.955Z,1.65
2022-11-02T09:05:36.905Z,1.25
2022-11-02T09:08:06.645Z,1.20
2022-11-02T09:10:35.516Z,1.33
2022-11-02T09:13:04.862Z,1.23
2022-11-02T09:15:33.668Z,1.55
2022-11-02T09:18:00.233Z,1.42
2022-11-02T09:20:28.351Z,1.20
2022-11-02T09:22:54.966Z,1.27
2022-11-02T09:25:21.564Z,1.25
2022-11-02T09:27:55.436Z,1.30
2022-11-02T09:30:23.700Z,1.25
2022-11-02T09:33:03.101Z,1.30
2022-11-02T09:35:33.005Z,1.20
2022-11-02T09:38:00.649Z,1.77
2022-11-02T09:40:30.384Z,1.38
2022-11-02T09:43:21.881Z,1.55
2022-11-02T09:46:13.879Z,1.73
2022-11-02T09:48:48.757Z,1.60
2022-11-02T09:51:20.560Z,1.45
2022-11-02T09:54:11.771Z,1.58
2022-11-02T09:56:42.495Z,1.30
2022-11-02T09:59:15.308Z,1.70
2022-11-02T10:01:42.003Z,1.17
2022-11-02T10:04:29.899Z,1.42
2022-11-02T10:07:22.795Z,1.40
2022-11-02T10:10:14.372Z,1.35
2022-11-02T10:12:40.878Z,1.20
2022-11-02T10:15:25.664Z,1.10
2022-11-02T10:17:57.393Z,1.15
2022-11-02T10:20:46.005Z,1.20
2022-11-02T10:23:22.854Z,1.05
2022-11-02T10:25:49.788Z,1.20
2022-11-02T10:28:24.502Z,1.20
2022-11-02T10:30:53.893Z,1.50
2022-11-02T10:33:27.320Z,1.23
2022-11-02T10:38:58.416Z,1.38
2022-11-02T10:41:40.345Z,1.40
2022-11-02T10:44:09.625Z,1.40
2022-11-02T10:46:57.933Z,1.60
2022-11-02T10:49:49.410Z,1.30
2022-11-02T10:52:17.949Z,1.10
2022-11-02T10:54:44.576Z,1.45
2022-11-02T10:57:13.449Z,1.20
2022-11-02T10:59:40.198Z,1.30
2022-11-02T11:02:14.617Z,1.17
2022-11-02T11:04:42.673Z,1.10
2022-11-02T11:07:23.318Z,1.77
2022-11-02T11:09:56.984Z,1.10
2022-11-02T11:12:37.498Z,1.20
2022-11-02T11:20:41.256Z,1.30
2022-11-02T11:23:22.934Z,1.00
2022-11-02T11:26:04.396Z,1.13
2022-11-02T11:28:54.418Z,1.20
2022-11-02T11:31:21.685Z,1.00
2022-11-02T11:33:58.456Z,0.98
2022-11-02T11:36:34.280Z,1.55
2022-11-02T11:39:26.167Z,1.20
2022-11-02T11:41:52.991Z,1.05
2022-11-02T11:44:20.871Z,1.15
2022-11-02T11:46:54.250Z,1.08
2022-11-02T11:52:27.005Z,1.10
2022-11-02T11:55:02.965Z,1.30
2022-11-02T11:57:32.591Z,1.02
2022-11-02T12:00:04.595Z,1.02
2022-11-02T12:02:37.919Z,1.23
2022-11-02T12:05:09.162Z,0.93
2022-11-02T12:07:42.806Z,1.27
2022-11-02T12:10:29.833Z,1.10
2022-11-02T12:13:24.427Z,1.13
2022-11-02T12:16:05.681Z,1.40
2022-11-02T12:21:37.552Z,1.30
2022-11-02T12:24:33.509Z,1.15
2022-11-02T12:27:08.785Z,1.10
2022-11-02T12:29:57.310Z,1.30
2022-11-02T12:32:38.755Z,1.35
2022-11-02T12:35:30.573Z,1.48
2022-11-02T12:38:06.999Z,1.30
2022-11-02T12:41:03.520Z,1.42
2022-11-02T12:43:39.735Z,1.38
2022-11-02T12:46:15.588Z,1.30
2022-11-02T12:48:57.730Z,1.40
2022-11-02T12:51:44.568Z,1.17
2022-11-02T12:54:17.505Z,1.30
2022-11-02T12:56:48.695Z,1.50
2022-11-02T13:02:11.781Z,1.20
2022-11-02T13:05:02.846Z,1.00
2022-11-02T13:07:57.040Z,1.17
2022-11-02T13:10:28.506Z,1.40
2022-11-02T13:13:02.172Z,1.60
2022-11-02T13:15:32.812Z,1.42
2022-11-02T13:18:06.086Z,1.35
2022-11-02T13:20:57.367Z,1.73
2022-11-02T13:23:37.592Z,1.50
2022-11-02T13:26:11.622Z,1.30
2022-11-02T13:28:47.222Z,1.45
2022-11-02T13:31:37.193Z,1.17
2022-11-02T13:34:10.411Z,1.33
2022-11-02T13:36:39.924Z,1.40
2022-11-02T13:39:20.047Z,1.30
2022-11-02T13:42:10.165Z,1.23
2022-11-02T13:44:55.102Z,1.38
2022-11-02T13:47:48.446Z,1.38
2022-11-02T13:50:20.464Z,1.15
2022-11-02T13:52:59.147Z,1.48
2022-11-02T13:55:41.495Z,1.20
2022-11-02T13:58:35.729Z,1.40
2022-11-02T14:01:05.541Z,1.27
2022-11-02T14:04:00.444Z,1.33
2022-11-02T14:06:30.597Z,1.20
2022-11-02T14:09:04.505Z,1.30
2022-11-02T14:11:36.291Z,1.20
2022-11-02T14:14:03.187Z,1.42
2022-11-02T14:16:48.624Z,1.70
2022-11-02T14:19:20.391Z,1.30
2022-11-02T14:21:59.523Z,1.33
2022-11-02T14:24:37.926Z,1.42
2022-11-02T14:27:10.655Z,1.25
2022-11-02T14:29:46.354Z,1.40
2022-11-02T14:32:22.440Z,1.38
2022-11-02T14:35:30.026Z,1.40
2022-11-02T14:38:11.721Z,1.40
2022-11-02T14:41:23.933Z,1.50
2022-11-02T14:43:56.475Z,1.20
2022-11-02T14:46:35.225Z,1.30
2022-11-02T14:49:04.322Z,1.65
2022-11-02T14:51:33.560Z,1.52
2022-11-02T14:54:03.236Z,1.40
2022-11-02T14:57:15.400Z,1.27
2022-11-02T14:59:48.287Z,1.77
2022-11-02T15:02:28.422Z,1.33
2022-11-02T15:04:57.661Z,1.40
2022-11-02T15:07:34.854Z,1.65
2022-11-02T15:10:07.393Z,1.52
2022-11-02T15:12:41.157Z,1.48
2022-11-02T15:15:35.883Z,1.27
2022-11-02T15:18:20.709Z,1.90
2022-11-02T15:21:09.372Z,1.65
2022-11-02T15:24:00.444Z,1.50
2022-11-02T15:26:55.144Z,1.60
2022-11-02T15:29:37.247Z,1.23
2022-11-02T15:32:09.822Z,1.45
2022-11-02T15:34:42.142Z,1.73
2022-11-02T15:37:45.291Z,1.85
2022-11-02T15:40:46.989Z,1.90
2022-11-02T15:43:50.969Z,1.75
2022-11-02T15:46:22.975Z,1.40
2022-11-02T15:49:07.659Z,1.00
2022-11-02T15:52:06.415Z,1.25
2022-11-02T15:54:49.424Z,1.67
2022-11-02T15:57:34.782Z,1.85
2022-11-02T16:00:21.602Z,1.98
2022-11-02T16:02:51.371Z,1.20
2022-11-02T16:05:29.469Z,1.10
2022-11-02T16:08:10.583Z,1.50
2022-11-02T16:10:40.286Z,1.95
2022-11-02T16:13:19.934Z,2.10
2022-11-02T16:15:48.770Z,2.42
2022-11-02T16:18:30.541Z,1.60
2022-11-02T16:21:02.045Z,3.65
2022-11-02T16:23:31.455Z,5.50
2022-11-02T16:25:59.994Z,5.95
2022-11-02T16:28:29.225Z,5.85
2022-11-02T16:31:05.498Z,4.88
2022-11-02T16:33:52.871Z,7.72
2022-11-02T16:36:27.428Z,7.10
2022-11-02T16:39:03.392Z,6.13
2022-11-02T16:41:33.239Z,5.80
2022-11-02T16:44:16.532Z,5.00
2022-11-02T16:46:52.999Z,4.72
2022-11-02T16:49:24.828Z,5.97
2022-11-02T16:52:19.336Z,7.43
2022-11-02T16:54:46.330Z,13.05
2022-11-02T16:57:19.113Z,12.32
2022-11-02T16:59:51.683Z,11.27
2022-11-02T17:02:19.487Z,7.78
2022-11-02T17:04:48.367Z,7.72
2022-11-02T17:07:22.181Z,7.57
2022-11-02T17:09:58.318Z,6.47
2022-11-02T17:12:35.363Z,6.25
2022-11-02T17:15:11.745Z,6.22
2022-11-02T17:17:40.298Z,6.35
2022-11-02T17:20:15.797Z,6.53
2022-11-02T17:22:53.415Z,7.07
2022-11-02T17:25:24.771Z,5.43
2022-11-02T17:27:52.855Z,5.30
2022-11-02T17:30:34.444Z,5.00
2022-11-02T17:33:26.663Z,6.18
2022-11-02T17:35:56.611Z,6.32
2022-11-02T17:38:26.883Z,5.72
2022-11-02T17:40:54.316Z,10.05
2022-11-02T17:43:22.046Z,9.88
2022-11-02T17:45:55.545Z,10.05
2022-11-02T17:48:22.150Z,8.25
2022-11-02T17:50:55.968Z,9.50
2022-11-02T17:53:24.060Z,9.80
2022-11-02T17:55:51.253Z,8.90
2022-11-02T17:58:23.099Z,7.13
2022-11-02T18:00:49.847Z,6.45
2022-11-02T18:03:20.120Z,6.70
2022-11-02T18:05:50.211Z,8.55
2022-11-02T18:08:19.115Z,8.18
2022-11-02T18:10:47.708Z,7.03
2022-11-02T18:13:16.494Z,6.75
2022-11-02T18:15:43.581Z,6.13
2022-11-02T18:18:10.288Z,6.60
2022-11-02T18:20:41.475Z,7.55
2022-11-02T18:23:16.870Z,7.40
2022-11-02T18:25:43.672Z,8.30
2022-11-02T18:28:10.431Z,7.97
2022-11-02T18:30:37.048Z,11.13
2022-11-02T18:33:03.728Z,9.75
2022-11-02T18:35:30.304Z,9.27
2022-11-02T18:37:56.953Z,8.52
2022-11-02T18:40:23.544Z,7.60
2022-11-02T18:42:50.282Z,6.40
2022-11-02T18:45:17.357Z,5.60
2022-11-02T18:47:44.162Z,5.35
2022-11-02T18:50:12.768Z,5.25
2022-11-02T18:52:40.223Z,5.95
2022-11-02T18:55:07.446Z,7.03
2022-11-02T18:57:34.444Z,5.75
2022-11-02T19:00:02.788Z,4.28
2022-11-02T19:02:29.804Z,4.72
2022-11-02T19:04:56.463Z,4.28
2022-11-02T19:07:41.697Z,4.20
2022-11-02T19:10:08.778Z,6.60
2022-11-02T19:12:35.960Z,4.88
2022-11-02T19:15:03.201Z,3.92
2022-11-02T19:17:30.200Z,32.95
2022-11-02T19:19:57.160Z,15.63
2022-11-02T19:22:26.129Z,17.58
2022-11-02T19:24:53.431Z,12.27
2022-11-02T19:27:25.281Z,12.25
2022-11-02T19:29:55.067Z,17.45
2022-11-02T19:32:21.600Z,32.53
2022-11-02T19:34:48.177Z,23.00
2022-11-02T19:37:14.696Z,22.13
2022-11-02T19:39:41.395Z,16.27
2022-11-02T19:42:07.936Z,10.23
2022-11-02T19:44:41.053Z,8.20
2022-11-02T19:47:09.197Z,7.75
2022-11-02T19:49:35.801Z,7.28
2022-11-02T19:52:06.227Z,7.57
2022-11-02T19:54:32.896Z,8.33
2022-11-02T19:56:59.462Z,10.23
2022-11-02T19:59:26.030Z,12.88
2022-11-02T20:01:52.708Z,15.68
2022-11-02T20:04:19.490Z,16.85
2022-11-02T20:06:46.099Z,17.75
2022-11-02T20:09:21.950Z,14.63
2022-11-02T20:11:48.951Z,14.23
2022-11-02T20:14:16.679Z,25.67
2022-11-02T20:16:58.220Z,22.20
2022-11-02T20:19:30.987Z,17.95
2022-11-02T20:21:58.009Z,12.32
2022-11-02T20:24:26.022Z,9.20
2022-11-02T20:26:57.033Z,8.95
2022-11-02T20:29:23.693Z,9.95
2022-11-02T20:31:50.238Z,7.93
2022-11-02T20:34:19.816Z,8.25
2022-11-02T20:36:47.414Z,9.02
2022-11-02T20:39:14.825Z,9.52
2022-11-02T20:41:41.527Z,9.27
2022-11-02T20:44:08.165Z,8.30
2022-11-02T20:46:41.024Z,7.88
2022-11-02T20:49:21.341Z,10.40
2022-11-02T20:51:55.820Z,8.85
2022-11-02T20:54:22.528Z,6.75
2022-11-02T20:56:50.149Z,7.63
2022-11-02T20:59:17.429Z,7.72
2022-11-02T21:01:44.649Z,9.45
2022-11-02T21:04:16.913Z,6.55
2022-11-02T21:06:47.119Z,5.60
2022-11-02T21:09:13.739Z,7.00
2022-11-02T21:11:58.912Z,8.75
2022-11-02T21:14:25.508Z,12.52
2022-11-02T21:16:52.066Z,9.35
2022-11-02T21:19:18.689Z,10.07
2022-11-02T21:21:45.311Z,8.88
2022-11-02T21:24:12.120Z,9.10
2022-11-02T21:26:38.732Z,8.00
2022-11-02T21:29:05.329Z,8.73
2022-11-02T21:31:31.892Z,14.20
2022-11-02T21:33:58.477Z,9.13
2022-11-02T21:36:25.044Z,8.23
2022-11-02T21:38:51.685Z,8.13
2022-11-02T21:41:21.508Z,7.85
2022-11-02T21:43:51.692Z,6.97
2022-11-02T21:46:19.774Z,6.10
2022-11-02T21:48:46.978Z,6.75
2022-11-02T21:51:19.104Z,6.57
2022-11-02T21:53:47.127Z,6.55
2022-11-02T21:56:18.817Z,6.82
2022-11-02T21:58:46.673Z,5.65
2022-11-02T22:01:37.175Z,5.57
2022-11-02T22:04:04.757Z,5.30
2022-11-02T22:06:32.023Z,5.03
2022-11-02T22:09:00.172Z,5.45
2022-11-02T22:11:27.824Z,5.28
2022-11-02T22:13:58.640Z,5.38
2022-11-02T22:16:37.792Z,6.43
2022-11-02T22:19:10.211Z,6.22
2022-11-02T22:21:39.807Z,9.38
2022-11-02T22:24:07.072Z,8.43
2022-11-02T22:26:35.931Z,8.02
2022-11-02T22:29:03.169Z,8.77
2022-11-02T22:31:34.949Z,7.30
2022-11-02T22:34:03.578Z,8.30
2022-11-02T22:36:31.969Z,12.18
2022-11-02T22:39:00.436Z,9.95
2022-11-02T22:41:30.925Z,9.35
2022-11-02T22:44:05.855Z,6.20
2022-11-02T22:46:35.091Z,4.63
2022-11-02T22:49:02.756Z,4.35
2022-11-02T22:51:31.834Z,4.68
2022-11-02T22:54:03.910Z,5.05
2022-11-02T22:56:34.137Z,4.70
2022-11-02T22:59:01.095Z,4.35
2022-11-02T23:01:29.291Z,5.00
2022-11-02T23:03:56.100Z,4.60
2022-11-02T23:06:23.779Z,4.82
2022-11-02T23:08:53.212Z,5.57
2022-11-02T23:11:23.196Z,4.88
2022-11-02T23:14:12.471Z,5.45
2022-11-02T23:16:47.044Z,4.88
2022-11-02T23:19:29.625Z,4.32
2022-11-02T23:22:18.287Z,4.00
2022-11-02T23:25:05.882Z,3.42
2022-11-02T23:27:34.430Z,3.20
2022-11-02T23:30:19.497Z,2.95
2022-11-02T23:32:46.182Z,2.90
2022-11-02T23:35:31.380Z,3.25
2022-11-02T23:38:05.514Z,3.40
2022-11-02T23:40:32.821Z,3.13
2022-11-02T23:42:59.473Z,2.90
2022-11-02T23:45:26.092Z,2.95
2022-11-02T23:48:00.707Z,2.75
2022-11-02T23:50:50.695Z,2.80
2022-11-02T23:53:41.670Z,2.40
2022-11-02T23:56:34.870Z,2.30
2022-11-02T23:59:07.504Z,2.70
